createdAt,value
2022-12-08T00:00:27.104Z,0.60
2022-12-08T00:02:55.984Z,0.77
2022-12-08T00:05:42.204Z,0.38
2022-12-08T00:08:31.103Z,0.47
2022-12-08T00:11:02.796Z,0.40
2022-12-08T00:13:32.102Z,0.10
2022-12-08T00:16:02.793Z,0.20
2022-12-08T00:18:33.916Z,0.22
2022-12-08T00:21:03.764Z,0.32
2022-12-08T00:23:34.769Z,0.38
2022-12-08T00:26:08.265Z,0.40
2022-12-08T00:28:37.609Z,0.43
2022-12-08T00:31:12.596Z,0.30
2022-12-08T00:33:41.941Z,0.40
2022-12-08T00:36:15.381Z,0.32
2022-12-08T00:38:45.092Z,0.60
2022-12-08T00:41:18.523Z,0.57
2022-12-08T00:43:47.289Z,1.77
2022-12-08T00:46:17.501Z,0.70
2022-12-08T00:48:46.229Z,1.15
2022-12-08T00:51:15.199Z,0.38
2022-12-08T00:53:44.052Z,0.65
2022-12-08T00:56:12.825Z,0.60
2022-12-08T00:58:41.978Z,0.50
2022-12-08T01:01:11.657Z,0.50
2022-12-08T01:03:42.915Z,0.50
2022-12-08T01:08:43.786Z,0.80
2022-12-08T01:11:14.900Z,1.08
2022-12-08T01:13:44.046Z,1.60
2022-12-08T01:16:22.582Z,2.10
2022-12-08T01:19:24.496Z,2.22
2022-12-08T01:21:53.797Z,3.67
2022-12-08T01:24:23.336Z,3.22
2022-12-08T01:26:53.013Z,4.10
2022-12-08T01:29:22.566Z,3.85
2022-12-08T01:31:51.839Z,4.88
2022-12-08T01:34:20.958Z,6.22
2022-12-08T01:36:51.458Z,7.43
2022-12-08T01:39:20.915Z,9.48
2022-12-08T01:41:50.048Z,6.95
2022-12-08T01:44:58.604Z,6.05
2022-12-08T01:47:36.293Z,7.53
2022-12-08T01:50:10.126Z,6.60
2022-12-08T01:52:44.187Z,5.57
2022-12-08T01:55:19.279Z,5.20
2022-12-08T01:57:51.584Z,4.60
2022-12-08T02:00:22.918Z,3.88
2022-12-08T02:02:58.411Z,3.25
2022-12-08T02:05:32.273Z,2.83
2022-12-08T02:08:32.411Z,3.67
2022-12-08T02:11:01.820Z,1.75
2022-12-08T02:13:33.060Z,1.50
2022-12-08T02:16:07.185Z,1.85
2022-12-08T02:19:02.090Z,1.10
2022-12-08T02:21:45.535Z,0.52
2022-12-08T02:24:25.226Z,0.68
2022-12-08T02:27:27.308Z,1.08
2022-12-08T02:30:16.429Z,0.82
2022-12-08T02:33:11.048Z,0.73
2022-12-08T02:35:50.628Z,0.95
2022-12-08T02:38:28.734Z,0.98
2022-12-08T02:41:06.097Z,1.90
2022-12-08T02:43:39.809Z,0.80
2022-12-08T02:46:13.006Z,0.75
2022-12-08T02:48:43.747Z,0.68
2022-12-08T02:51:15.088Z,0.93
2022-12-08T02:53:48.010Z,0.70
2022-12-08T02:56:37.426Z,0.40
2022-12-08T02:59:20.172Z,0.52
2022-12-08T03:02:07.318Z,0.50
2022-12-08T03:04:44.983Z,0.50
2022-12-08T03:07:23.568Z,0.40
2022-12-08T03:09:57.731Z,0.70
2022-12-08T03:12:32.474Z,0.40
2022-12-08T03:15:09.559Z,0.50
2022-12-08T03:17:42.970Z,0.70
2022-12-08T03:22:47.457Z,1.40
2022-12-08T03:25:18.629Z,0.70
2022-12-08T03:27:48.443Z,0.68
2022-12-08T03:30:17.624Z,1.42
2022-12-08T03:32:56.125Z,0.60
2022-12-08T03:35:54.404Z,0.82
2022-12-08T03:38:25.712Z,0.70
2022-12-08T03:41:08.716Z,0.57
2022-12-08T03:43:40.643Z,0.60
2022-12-08T03:46:10.285Z,0.90
2022-12-08T03:48:40.338Z,0.73
2022-12-08T03:51:10.132Z,1.17
2022-12-08T03:53:42.807Z,1.00
2022-12-08T03:56:18.460Z,0.65
2022-12-08T03:58:49.978Z,0.60
2022-12-08T04:01:19.672Z,0.60
2022-12-08T04:03:49.593Z,0.90
2022-12-08T04:06:20.012Z,0.73
2022-12-08T04:08:51.637Z,0.43
2022-12-08T04:11:23.619Z,0.38
2022-12-08T04:13:53.005Z,0.50
2022-12-08T04:16:24.875Z,0.25
2022-12-08T04:18:54.990Z,0.45
2022-12-08T04:21:24.834Z,0.63
2022-12-08T04:24:00.820Z,0.60
2022-12-08T04:26:31.220Z,0.30
2022-12-08T04:29:00.732Z,1.65
2022-12-08T04:31:29.983Z,0.50
2022-12-08T04:33:59.340Z,0.68
2022-12-08T04:36:29.463Z,0.60
2022-12-08T04:39:00.094Z,0.70
2022-12-08T04:41:29.538Z,0.60
2022-12-08T04:43:58.979Z,0.40
2022-12-08T04:46:28.331Z,2.00
2022-12-08T04:48:58.056Z,0.65
2022-12-08T04:51:27.766Z,0.40
2022-12-08T04:53:56.777Z,0.38
2022-12-08T04:56:29.531Z,0.30
2022-12-08T04:59:01.746Z,0.32
2022-12-08T05:01:30.898Z,0.57
2022-12-08T05:03:59.845Z,0.60
2022-12-08T05:06:28.831Z,0.60
2022-12-08T05:08:57.560Z,1.10
2022-12-08T05:11:57.333Z,0.40
2022-12-08T05:14:28.728Z,0.30
2022-12-08T05:17:02.570Z,0.57
2022-12-08T05:19:34.259Z,0.30
2022-12-08T05:22:04.320Z,0.30
2022-12-08T05:24:33.389Z,0.22
2022-12-08T05:27:04.785Z,0.80
2022-12-08T05:29:33.835Z,0.40
2022-12-08T05:32:12.000Z,0.38
2022-12-08T05:34:41.107Z,1.00
2022-12-08T05:37:10.057Z,0.68
2022-12-08T05:39:39.248Z,0.68
2022-12-08T05:42:09.751Z,0.43
2022-12-08T05:44:38.719Z,0.57
2022-12-08T05:47:07.842Z,0.70
2022-12-08T05:49:39.666Z,0.55
2022-12-08T05:52:09.062Z,0.43
2022-12-08T05:54:38.349Z,0.55
2022-12-08T05:57:09.554Z,0.65
2022-12-08T05:59:38.843Z,0.65
2022-12-08T06:02:08.898Z,0.47
2022-12-08T06:04:38.588Z,2.75
2022-12-08T06:07:13.102Z,1.58
2022-12-08T06:09:45.586Z,0.52
2022-12-08T06:12:18.272Z,0.40
2022-12-08T06:14:47.761Z,0.50
2022-12-08T06:17:16.912Z,1.58
2022-12-08T06:19:45.786Z,0.65
2022-12-08T06:22:14.834Z,0.60
2022-12-08T06:24:47.277Z,0.70
2022-12-08T06:27:17.842Z,0.57
2022-12-08T06:29:47.077Z,0.50
2022-12-08T06:32:16.886Z,0.30
2022-12-08T06:34:46.181Z,0.20
2022-12-08T06:37:16.023Z,0.15
2022-12-08T06:40:13.733Z,0.20
2022-12-08T06:42:45.220Z,0.22
2022-12-08T06:45:15.958Z,0.30
2022-12-08T06:47:45.769Z,0.73
2022-12-08T06:50:15.237Z,0.13
2022-12-08T06:52:56.935Z,0.22
2022-12-08T06:58:22.824Z,0.30
2022-12-08T07:00:52.047Z,0.40
2022-12-08T07:03:21.258Z,0.47
2022-12-08T07:05:50.374Z,0.35
2022-12-08T07:08:19.931Z,0.32
2022-12-08T07:10:49.419Z,0.30
2022-12-08T07:13:18.471Z,0.20
2022-12-08T07:15:48.970Z,0.40
2022-12-08T07:18:20.025Z,1.35
2022-12-08T07:20:49.527Z,0.30
2022-12-08T07:23:18.696Z,0.30
2022-12-08T07:25:50.226Z,0.80
2022-12-08T07:28:19.842Z,0.30
2022-12-08T07:30:50.226Z,0.70
2022-12-08T07:33:19.297Z,1.08
2022-12-08T07:35:55.528Z,0.98
2022-12-08T07:38:24.563Z,1.23
2022-12-08T07:40:54.702Z,0.95
2022-12-08T07:43:24.849Z,0.70
2022-12-08T07:45:55.969Z,1.67
2022-12-08T07:48:25.184Z,2.03
2022-12-08T07:51:01.623Z,2.90
2022-12-08T07:53:31.261Z,1.50
2022-12-08T07:56:00.469Z,1.30
2022-12-08T07:58:29.509Z,1.73
2022-12-08T08:01:00.247Z,5.68
2022-12-08T08:03:31.713Z,3.47
2022-12-08T08:06:04.591Z,2.67
2022-12-08T08:08:33.562Z,1.67
2022-12-08T08:11:08.963Z,1.85
2022-12-08T08:13:44.662Z,0.80
2022-12-08T08:16:15.218Z,0.85
2022-12-08T08:19:13.017Z,0.63
2022-12-08T08:21:46.081Z,1.50
2022-12-08T08:24:16.011Z,0.85
2022-12-08T08:26:45.470Z,1.10
2022-12-08T08:29:14.637Z,1.13
2022-12-08T08:31:45.370Z,1.50
2022-12-08T08:34:15.238Z,1.40
2022-12-08T08:36:44.041Z,0.90
2022-12-08T08:39:13.759Z,1.10
2022-12-08T08:41:42.493Z,0.80
2022-12-08T08:44:11.824Z,0.68
2022-12-08T08:46:40.654Z,0.82
2022-12-08T08:49:11.197Z,1.02
2022-12-08T08:51:43.869Z,0.50
2022-12-08T08:54:12.928Z,1.10
2022-12-08T08:56:43.847Z,0.93
2022-12-08T08:59:13.527Z,1.70
2022-12-08T09:01:42.665Z,1.40
2022-12-08T09:04:41.655Z,1.30
2022-12-08T09:07:10.515Z,1.30
2022-12-08T09:09:40.407Z,1.42
2022-12-08T09:12:09.573Z,2.40
2022-12-08T09:14:38.829Z,2.33
2022-12-08T09:17:10.546Z,2.85
2022-12-08T09:19:39.531Z,2.50
2022-12-08T09:22:09.911Z,2.55
2022-12-08T09:24:39.174Z,4.47
2022-12-08T09:27:08.090Z,7.63
2022-12-08T09:29:37.065Z,10.73
2022-12-08T09:32:08.636Z,5.45
2022-12-08T09:34:38.459Z,3.90
2022-12-08T09:37:09.368Z,3.33
2022-12-08T09:39:38.668Z,3.20
2022-12-08T09:42:08.501Z,3.28
2022-12-08T09:44:48.627Z,3.63
2022-12-08T09:47:22.741Z,2.50
2022-12-08T09:50:23.076Z,2.70
2022-12-08T09:53:01.718Z,1.92
2022-12-08T09:55:41.782Z,1.77
2022-12-08T09:58:20.913Z,1.55
2022-12-08T10:00:49.732Z,1.60
2022-12-08T10:03:18.887Z,3.25
2022-12-08T10:06:02.894Z,0.80
2022-12-08T10:08:43.341Z,0.98
2022-12-08T10:11:19.138Z,1.15
2022-12-08T10:13:59.861Z,0.90
2022-12-08T10:16:35.333Z,1.02
2022-12-08T10:19:15.315Z,0.77
2022-12-08T10:21:44.540Z,0.85
2022-12-08T10:24:24.443Z,0.63
2022-12-08T10:26:53.769Z,0.57
2022-12-08T10:29:22.649Z,0.88
2022-12-08T10:31:52.723Z,0.52
2022-12-08T10:34:24.330Z,0.70
2022-12-08T10:36:56.168Z,0.50
2022-12-08T10:39:37.853Z,0.55
2022-12-08T10:42:18.376Z,1.10
2022-12-08T10:44:59.276Z,0.70
2022-12-08T10:47:29.740Z,0.90
2022-12-08T10:50:18.335Z,0.75
2022-12-08T10:52:56.520Z,0.60
2022-12-08T10:55:28.745Z,1.20
2022-12-08T10:57:57.538Z,0.80
2022-12-08T11:00:28.731Z,0.60
2022-12-08T11:03:00.398Z,0.75
2022-12-08T11:05:34.269Z,0.80
2022-12-08T11:08:06.762Z,1.77
2022-12-08T11:10:46.363Z,1.15
2022-12-08T11:13:24.137Z,1.63
2022-12-08T11:15:54.260Z,2.60
2022-12-08T11:18:27.231Z,2.60
2022-12-08T11:21:01.864Z,2.30
2022-12-08T11:23:31.431Z,2.43
2022-12-08T11:26:12.905Z,3.75
2022-12-08T11:28:41.685Z,2.45
2022-12-08T11:31:23.432Z,4.30
2022-12-08T11:33:55.654Z,3.90
2022-12-08T11:36:28.555Z,3.05
2022-12-08T11:38:59.258Z,3.60
2022-12-08T11:41:33.632Z,2.92
2022-12-08T11:44:08.449Z,2.90
2022-12-08T11:46:42.864Z,1.50
2022-12-08T11:49:14.495Z,2.20
2022-12-08T11:51:52.860Z,2.00
2022-12-08T11:54:55.496Z,1.60
2022-12-08T11:57:29.761Z,1.55
2022-12-08T11:59:59.920Z,1.52
2022-12-08T12:02:32.400Z,1.70
2022-12-08T12:05:07.432Z,1.15
2022-12-08T12:08:00.493Z,1.77
2022-12-08T12:10:50.585Z,1.50
2022-12-08T12:13:55.811Z,1.60
2022-12-08T12:16:43.418Z,1.05
2022-12-08T12:19:16.397Z,1.63
2022-12-08T12:21:47.937Z,0.80
2022-12-08T12:24:26.038Z,0.90
2022-12-08T12:27:00.584Z,0.85
2022-12-08T12:29:33.803Z,0.80
2022-12-08T12:32:05.600Z,0.90
2022-12-08T12:34:40.120Z,1.05
2022-12-08T12:37:12.530Z,1.38
2022-12-08T12:39:50.899Z,1.45
2022-12-08T12:42:40.484Z,0.90
2022-12-08T12:45:27.137Z,0.82
2022-12-08T12:48:22.761Z,0.75
2022-12-08T12:50:52.087Z,0.65
2022-12-08T12:53:50.388Z,1.20
2022-12-08T12:56:53.005Z,1.20
2022-12-08T12:59:51.638Z,0.77
2022-12-08T13:02:28.832Z,1.30
2022-12-08T13:05:04.462Z,0.88
2022-12-08T13:07:35.531Z,0.50
2022-12-08T13:10:17.558Z,0.60
2022-12-08T13:13:04.261Z,0.60
2022-12-08T13:15:38.980Z,0.40
2022-12-08T13:18:19.733Z,0.50
2022-12-08T13:20:52.950Z,0.50
2022-12-08T13:23:45.261Z,0.47
2022-12-08T13:26:19.724Z,0.65
2022-12-08T13:29:18.907Z,1.50
2022-12-08T13:31:51.318Z,1.02
2022-12-08T13:34:33.924Z,0.95
2022-12-08T13:37:09.968Z,1.55
2022-12-08T13:39:46.085Z,1.02
2022-12-08T13:42:23.020Z,1.20
2022-12-08T13:45:22.283Z,1.05
2022-12-08T13:48:21.628Z,1.48
2022-12-08T13:57:02.456Z,1.75
2022-12-08T13:59:30.335Z,1.38
2022-12-08T14:02:02.458Z,0.85
2022-12-08T14:07:53.102Z,1.45
2022-12-08T14:10:24.827Z,1.55
2022-12-08T14:12:58.551Z,1.50
2022-12-08T14:15:32.567Z,1.30
2022-12-08T14:18:08.046Z,1.65
2022-12-08T14:20:58.320Z,1.52
2022-12-08T14:23:28.063Z,1.38
2022-12-08T14:25:57.951Z,1.10
2022-12-08T14:28:29.711Z,1.35
2022-12-08T14:30:58.681Z,1.80
2022-12-08T14:33:28.709Z,2.00
2022-12-08T14:35:58.746Z,1.80
2022-12-08T14:38:29.248Z,2.75
2022-12-08T14:41:03.735Z,2.17
2022-12-08T14:43:35.902Z,3.05
2022-12-08T14:46:06.460Z,2.22
2022-12-08T14:48:44.703Z,2.08
2022-12-08T14:51:21.025Z,2.03
2022-12-08T14:53:59.646Z,1.70
2022-12-08T14:56:37.704Z,1.52
2022-12-08T14:59:13.653Z,3.33
2022-12-08T15:01:48.505Z,1.60
2022-12-08T15:04:20.962Z,1.88
2022-12-08T15:06:54.475Z,1.63
2022-12-08T15:09:33.897Z,1.88
2022-12-08T15:12:03.458Z,1.92
2022-12-08T15:14:34.508Z,2.00
2022-12-08T15:17:04.464Z,1.77
2022-12-08T15:19:35.413Z,1.75
2022-12-08T15:22:13.049Z,1.40
2022-12-08T15:24:45.318Z,2.22
2022-12-08T15:27:18.713Z,2.70
2022-12-08T15:29:50.561Z,2.22
2022-12-08T15:32:22.054Z,2.30
2022-12-08T15:34:51.438Z,2.80
2022-12-08T15:37:23.394Z,2.60
2022-12-08T15:39:53.866Z,2.90
2022-12-08T15:42:22.756Z,2.47
2022-12-08T15:44:51.646Z,2.35
2022-12-08T15:47:22.260Z,2.25
2022-12-08T15:49:53.038Z,3.05
2022-12-08T15:52:24.148Z,3.90
2022-12-08T15:54:54.927Z,3.92
2022-12-08T15:58:04.119Z,6.00
2022-12-08T16:00:51.836Z,6.90
2022-12-08T16:07:12.913Z,6.43
2022-12-08T16:12:09.961Z,5.75
2022-12-08T16:17:30.589Z,8.38
2022-12-08T16:19:59.684Z,7.22
2022-12-08T16:25:20.894Z,5.60
2022-12-08T16:28:17.395Z,5.05
2022-12-08T16:30:46.406Z,5.63
2022-12-08T16:33:15.499Z,7.90
2022-12-08T16:35:45.089Z,4.97
2022-12-08T16:38:16.487Z,5.68
2022-12-08T16:41:04.191Z,4.00
2022-12-08T16:43:37.204Z,4.32
2022-12-08T16:46:06.107Z,4.10
2022-12-08T16:48:35.109Z,4.47
2022-12-08T16:51:10.290Z,4.18
2022-12-08T16:53:41.583Z,4.53
2022-12-08T16:56:10.306Z,5.35
2022-12-08T16:58:40.652Z,4.38
2022-12-08T17:01:13.281Z,4.40
2022-12-08T17:03:51.723Z,4.55
2022-12-08T17:06:32.016Z,5.20
2022-12-08T17:09:03.160Z,8.60
2022-12-08T17:11:37.468Z,4.00
2022-12-08T17:14:11.403Z,14.82
2022-12-08T17:16:40.467Z,14.40
2022-12-08T17:19:15.346Z,5.00
2022-12-08T17:21:45.230Z,4.10
2022-12-08T17:24:18.574Z,4.07
2022-12-08T17:26:51.681Z,3.53
2022-12-08T17:29:21.766Z,4.90
2022-12-08T17:31:50.617Z,4.10
2022-12-08T17:34:19.498Z,4.60
2022-12-08T17:36:50.407Z,4.15
2022-12-08T17:39:19.351Z,4.60
2022-12-08T17:41:48.606Z,4.50
2022-12-08T17:44:19.537Z,4.47
2022-12-08T17:46:53.045Z,3.95
2022-12-08T17:49:26.615Z,4.80
2022-12-08T17:52:26.193Z,4.65
2022-12-08T17:54:55.970Z,4.78
2022-12-08T17:57:24.942Z,4.35
2022-12-08T17:59:54.174Z,4.00
2022-12-08T18:02:24.788Z,4.47
2022-12-08T18:04:53.883Z,4.70
2022-12-08T18:07:22.771Z,4.15
2022-12-08T18:09:52.390Z,3.97
2022-12-08T18:12:23.808Z,4.85
2022-12-08T18:14:55.975Z,3.78
2022-12-08T18:17:26.763Z,4.03
2022-12-08T18:19:55.877Z,4.07
2022-12-08T18:22:25.024Z,4.25
2022-12-08T18:24:54.019Z,3.75
2022-12-08T18:27:22.930Z,4.10
2022-12-08T18:29:51.819Z,3.35
2022-12-08T18:32:23.554Z,3.33
2022-12-08T18:34:56.947Z,4.03
2022-12-08T18:37:26.265Z,3.72
2022-12-08T18:39:55.201Z,4.38
2022-12-08T18:42:24.089Z,5.80
2022-12-08T18:44:56.332Z,3.85
2022-12-08T18:47:28.110Z,4.45
2022-12-08T18:49:58.810Z,4.53
2022-12-08T18:52:32.185Z,4.30
2022-12-08T18:55:06.789Z,4.53
2022-12-08T18:57:39.833Z,5.28
2022-12-08T19:00:11.450Z,5.22
2022-12-08T19:02:41.670Z,4.82
2022-12-08T19:05:14.994Z,5.32
2022-12-08T19:07:45.876Z,6.05
2022-12-08T19:10:17.749Z,5.93
2022-12-08T19:12:46.890Z,6.43
2022-12-08T19:15:15.695Z,6.88
2022-12-08T19:17:45.164Z,6.93
2022-12-08T19:20:16.006Z,7.70
2022-12-08T19:22:44.669Z,6.95
2022-12-08T19:25:13.614Z,7.22
2022-12-08T19:27:42.516Z,7.78
2022-12-08T19:30:12.616Z,7.88
2022-12-08T19:32:41.272Z,7.72
2022-12-08T19:35:10.379Z,7.53
2022-12-08T19:37:40.882Z,7.32
2022-12-08T19:40:31.045Z,7.57
2022-12-08T19:43:20.247Z,7.15
2022-12-08T19:45:49.126Z,7.65
2022-12-08T19:48:17.813Z,7.85
2022-12-08T19:50:46.970Z,7.70
2022-12-08T19:53:17.290Z,8.00
2022-12-08T19:55:46.529Z,8.48
2022-12-08T19:58:17.757Z,7.80
2022-12-08T20:00:47.242Z,7.97
2022-12-08T20:03:17.031Z,7.93
2022-12-08T20:05:48.464Z,7.70
2022-12-08T20:08:18.750Z,6.60
2022-12-08T20:10:48.225Z,6.85
2022-12-08T20:13:34.391Z,7.78
2022-12-08T20:16:06.887Z,6.43
2022-12-08T20:18:36.725Z,7.78
2022-12-08T20:21:05.969Z,7.45
2022-12-08T20:23:36.116Z,7.18
2022-12-08T20:26:06.258Z,8.43
2022-12-08T20:28:35.585Z,8.45
2022-12-08T20:31:05.913Z,9.68
2022-12-08T20:33:34.772Z,10.13
2022-12-08T20:36:06.161Z,8.90
2022-12-08T20:38:38.693Z,9.75
2022-12-08T20:41:09.457Z,10.95
2022-12-08T20:43:38.489Z,19.23
2022-12-08T20:46:11.178Z,15.02
2022-12-08T20:48:40.266Z,11.32
2022-12-08T20:51:14.764Z,10.38
2022-12-08T20:53:47.899Z,9.73
2022-12-08T20:56:18.273Z,8.35
2022-12-08T20:58:47.998Z,8.43
2022-12-08T21:01:22.513Z,8.82
2022-12-08T21:03:52.908Z,8.43
2022-12-08T21:06:23.634Z,8.15
2022-12-08T21:08:54.011Z,9.07
2022-12-08T21:11:22.845Z,8.48
2022-12-08T21:13:51.584Z,8.00
2022-12-08T21:16:22.676Z,9.10
2022-12-08T21:18:54.712Z,9.88
2022-12-08T21:21:23.589Z,9.80
2022-12-08T21:23:56.219Z,9.35
2022-12-08T21:26:26.607Z,11.25
2022-12-08T21:28:59.114Z,11.00
2022-12-08T21:31:31.745Z,10.25
2022-12-08T21:34:00.912Z,10.20
2022-12-08T21:36:31.692Z,10.52
2022-12-08T21:39:11.292Z,11.73
2022-12-08T21:41:58.308Z,10.93
2022-12-08T21:44:27.156Z,10.95
2022-12-08T21:46:56.075Z,12.60
2022-12-08T21:49:27.193Z,12.75
2022-12-08T21:51:56.689Z,12.80
2022-12-08T21:54:26.834Z,13.00
2022-12-08T21:56:55.565Z,14.52
2022-12-08T21:59:24.837Z,15.93
2022-12-08T22:01:54.496Z,15.85
2022-12-08T22:04:25.157Z,15.88
2022-12-08T22:06:53.922Z,15.73
2022-12-08T22:09:23.274Z,16.48
2022-12-08T22:11:55.561Z,17.73
2022-12-08T22:14:24.665Z,17.85
2022-12-08T22:16:53.462Z,17.73
2022-12-08T22:19:28.708Z,19.17
2022-12-08T22:21:57.419Z,19.17
2022-12-08T22:24:26.387Z,21.20
2022-12-08T22:26:56.522Z,20.42
2022-12-08T22:29:25.346Z,20.00
2022-12-08T22:31:56.761Z,20.15
2022-12-08T22:34:25.363Z,20.95
2022-12-08T22:36:54.301Z,21.45
2022-12-08T22:39:23.431Z,19.80
2022-12-08T22:41:55.867Z,20.83
2022-12-08T22:44:24.614Z,18.38
2022-12-08T22:46:56.788Z,20.58
2022-12-08T22:49:27.982Z,19.92
2022-12-08T22:51:56.820Z,19.88
2022-12-08T22:54:25.510Z,20.38
2022-12-08T22:56:57.948Z,21.27
2022-12-08T22:59:30.707Z,18.80
2022-12-08T23:01:59.841Z,20.52
2022-12-08T23:04:29.153Z,22.48
2022-12-08T23:06:57.967Z,21.77
2022-12-08T23:09:29.127Z,20.73
2022-12-08T23:12:02.235Z,20.70
2022-12-08T23:14:31.367Z,21.85
2022-12-08T23:17:03.090Z,26.15
2022-12-08T23:19:32.802Z,25.60
2022-12-08T23:22:04.204Z,27.13
2022-12-08T23:24:32.983Z,29.10
2022-12-08T23:27:03.169Z,30.25
2022-12-08T23:29:32.510Z,30.42
2022-12-08T23:32:01.307Z,32.25
2022-12-08T23:34:33.056Z,31.45
2022-12-08T23:37:03.845Z,27.42
2022-12-08T23:39:32.890Z,30.85
2022-12-08T23:42:03.192Z,32.10
2022-12-08T23:44:32.593Z,30.13
2022-12-08T23:47:01.885Z,28.88
2022-12-08T23:49:35.504Z,30.55
2022-12-08T23:52:04.869Z,29.15
2022-12-08T23:54:33.768Z,30.20
2022-12-08T23:57:06.409Z,29.02
2022-12-08T23:59:40.072Z,25.10
